Terminal Aerodrome Forecast
Issued by NWS

Current Version | Previous Version | Text Only | Print | Product List | Glossary Off
Versions: 1 2 3 4 5 6 7 8 9 10 11 12 13 14 15 16

725
FTUS41 KILN 090534
TAFLCK
TAF
KLCK 090534Z 0906/1006 27010G15KT P6SM OVC025
     FM091500 27011KT P6SM BKN025
     FM100100 27004KT P6SM SCT025
      AMD NOT SKED=

USA.gov is the U.S. government's official web portal to all federal, state and local government web resources and services.